Lawrenceville, NJ

19:04 EST dnia 19-grudzień-2014 (GMT -0500)
University Heights | Change Station
CLOSE
Current Station
Stacja PWS
Location: Mercerville, NJ
n.p.m.: 60 ft
Najbliższa stacja pogodowa

Wysokość 60 ft 40.25 °N, 74.68 °W | Updated 4 minutes ago

pogodnie
pogodnie
32.5 ° F
Odczuwalna 29 ° F
Płn.
4.0
Wiatr zmienny Wiatr od PnPnZd
Gusts 14.0 mph

Dziś
Wysoka -- | Niska -- ° F
--% Prawdop. opadów
Wczoraj
Wysoka -- | Niska -- ° F
Precip. -- cali
7:16 AM 4:35 PM
Zmniejszający się sierp Księżyca, 5% visible
Ciśnienie 30.15 cali
Widzialność 10.0 mil
chmury pogodnie
czynnik chłodzący wiatru 29 ° F
Punkt rosy 21 ° F
Wilgotność 63%
Opady deszczu 0.00 cali
grubość pokrywy śnieżnej Niedostępne.
UV 0.0 z 12
Pyłki .10 z 12
Jakość powietrza Niedostępne.
Flu Activity Niedostępne.
METAR KTTN 192353Z 34010KT 10SM CLR 00/M07 A3016 RMK AO2 SLP210 T00001067 10044 21006 51032

More Conditions Fewer Conditions

Ciśnienie 30.15 cali
Widzialność 10.0 mil
chmury pogodnie
czynnik chłodzący wiatru 29 ° F
Punkt rosy 21 ° F
Wilgotność 63%
Opady deszczu 0.00 cali
grubość pokrywy śnieżnej Niedostępne.
UV 0.0 z 12
Pyłki .10 z 12
Jakość powietrza Niedostępne.
Flu Activity Niedostępne.
METAR KTTN 192353Z 34010KT 10SM CLR 00/M07 A3016 RMK AO2 SLP210 T00001067 10044 21006 51032

More Conditions Fewer Conditions

10-Day Weather Forecast

Almanac

Astronomia

Dec. 19, 2014 Wschód Zachów
Aktualny czas
Zmierzch cywilny
Zmierzch żeglarski
świt/zmierzch astronomiczny
Księżyc
całkowite oświetlenie
Długość dnia
Tomorrow will be .
, % of the Moon is Illuminated

Dzisiejsze ekstrema

State Highs State Lows

Community

WunderPhotos

Upload Photos

1,779,079 zdjęcia zostały przesłane!

WunderBlogs® & News

Nearby

Jakość powietrza

  Jakość powietrza czynnik AQ Zanieczyszczenie
Not available.

Głębokość pokrywy śnieżnej

Station Depth n.p.m.

Aktywność sejsmiczna

Miejscowość Distance Mag. Time & Date
Minimum magnitude displayed is 2.5.

Temperatury wody na wybrzeżu

Miejsce Temperatura

Najbliższa stacja pogodowa